sensor_id;sensor_type;location;lat;lon;timestamp;P1;P2;P0
55304;PMS7003;65692;51.378;19.824;2023-03-23T00:00:57;64.00;50.50;33.25
55304;PMS7003;65692;51.378;19.824;2023-03-23T00:03:23;72.75;57.25;36.50
55304;PMS7003;65692;51.378;19.824;2023-03-23T00:05:51;74.00;59.25;38.75
55304;PMS7003;65692;51.378;19.824;2023-03-23T00:08:17;83.25;59.75;39.75
55304;PMS7003;65692;51.378;19.824;2023-03-23T00:10:43;84.75;59.75;39.00
55304;PMS7003;65692;51.378;19.824;2023-03-23T00:13:08;81.25;62.25;42.50
55304;PMS7003;65692;51.378;19.824;2023-03-23T00:15:33;93.25;68.00;44.25
55304;PMS7003;65692;51.378;19.824;2023-03-23T00:18:00;88.75;67.75;43.00
55304;PMS7003;65692;51.378;19.824;2023-03-23T00:20:30;88.00;64.75;41.25
55304;PMS7003;65692;51.378;19.824;2023-03-23T00:22:55;83.00;65.25;42.25
55304;PMS7003;65692;51.378;19.824;2023-03-23T00:25:25;87.00;64.25;40.25
55304;PMS7003;65692;51.378;19.824;2023-03-23T00:27:50;91.75;64.25;40.25
55304;PMS7003;65692;51.378;19.824;2023-03-23T00:30:16;76.50;57.75;40.00
55304;PMS7003;65692;51.378;19.824;2023-03-23T00:32:42;80.50;62.25;39.75
55304;PMS7003;65692;51.378;19.824;2023-03-23T00:35:08;75.50;59.00;37.50
55304;PMS7003;65692;51.378;19.824;2023-03-23T00:37:33;79.50;57.75;38.00
55304;PMS7003;65692;51.378;19.824;2023-03-23T00:40:00;79.00;62.00;40.25
55304;PMS7003;65692;51.378;19.824;2023-03-23T00:42:26;81.50;61.00;38.50
55304;PMS7003;65692;51.378;19.824;2023-03-23T00:44:53;81.75;60.50;39.25
55304;PMS7003;65692;51.378;19.824;2023-03-23T00:47:25;81.00;59.75;39.25
55304;PMS7003;65692;51.378;19.824;2023-03-23T00:49:50;74.50;59.50;41.00
55304;PMS7003;65692;51.378;19.824;2023-03-23T00:52:17;79.25;54.75;37.00
55304;PMS7003;65692;51.378;19.824;2023-03-23T00:54:42;83.50;61.25;39.50
55304;PMS7003;65692;51.378;19.824;2023-03-23T00:57:08;65.00;55.00;38.25
55304;PMS7003;65692;51.378;19.824;2023-03-23T00:59:35;80.75;60.00;38.50
55304;PMS7003;65692;51.378;19.824;2023-03-23T01:02:00;81.00;61.25;39.50
55304;PMS7003;65692;51.378;19.824;2023-03-23T01:04:26;80.50;60.00;38.75
55304;PMS7003;65692;51.378;19.824;2023-03-23T01:06:53;74.00;58.00;38.75
55304;PMS7003;65692;51.378;19.824;2023-03-23T01:09:19;82.50;61.25;39.00
55304;PMS7003;65692;51.378;19.824;2023-03-23T01:11:47;76.25;59.25;38.75
55304;PMS7003;65692;51.378;19.824;2023-03-23T01:14:13;79.25;56.00;36.50
55304;PMS7003;65692;51.378;19.824;2023-03-23T01:16:38;74.00;56.00;37.00
55304;PMS7003;65692;51.378;19.824;2023-03-23T01:19:04;80.50;59.25;38.75
55304;PMS7003;65692;51.378;19.824;2023-03-23T01:21:29;80.75;59.75;38.25
55304;PMS7003;65692;51.378;19.824;2023-03-23T01:23:55;75.00;55.75;37.75
55304;PMS7003;65692;51.378;19.824;2023-03-23T01:26:21;69.50;55.00;35.00
55304;PMS7003;65692;51.378;19.824;2023-03-23T01:28:47;71.25;53.50;35.50
55304;PMS7003;65692;51.378;19.824;2023-03-23T01:31:17;69.25;56.50;37.50
55304;PMS7003;65692;51.378;19.824;2023-03-23T01:33:43;76.50;57.50;38.00
55304;PMS7003;65692;51.378;19.824;2023-03-23T01:36:13;67.75;52.75;35.00
55304;PMS7003;65692;51.378;19.824;2023-03-23T01:38:39;69.50;52.75;35.00
55304;PMS7003;65692;51.378;19.824;2023-03-23T01:41:04;74.50;58.25;38.00
55304;PMS7003;65692;51.378;19.824;2023-03-23T01:43:30;61.50;50.50;34.00
55304;PMS7003;65692;51.378;19.824;2023-03-23T01:45:56;68.00;51.50;34.50
55304;PMS7003;65692;51.378;19.824;2023-03-23T01:48:23;69.50;54.00;36.00
55304;PMS7003;65692;51.378;19.824;2023-03-23T01:53:19;71.50;56.50;36.25
55304;PMS7003;65692;51.378;19.824;2023-03-23T01:55:45;55.75;41.75;22.25
55304;PMS7003;65692;51.378;19.824;2023-03-23T01:58:16;71.50;55.25;37.50
55304;PMS7003;65692;51.378;19.824;2023-03-23T02:00:42;63.00;47.75;32.25
55304;PMS7003;65692;51.378;19.824;2023-03-23T02:03:08;66.50;51.50;34.50
55304;PMS7003;65692;51.378;19.824;2023-03-23T02:05:39;38.75;31.00;8.00
55304;PMS7003;65692;51.378;19.824;2023-03-23T02:08:05;59.50;50.00;33.25
55304;PMS7003;65692;51.378;19.824;2023-03-23T02:10:32;65.25;48.00;32.50
55304;PMS7003;65692;51.378;19.824;2023-03-23T02:12:58;66.25;53.50;34.75
55304;PMS7003;65692;51.378;19.824;2023-03-23T02:15:32;65.75;52.50;35.75
55304;PMS7003;65692;51.378;19.824;2023-03-23T02:23:01;65.25;53.00;35.00
55304;PMS7003;65692;51.378;19.824;2023-03-23T02:33:29;69.25;52.25;36.50
55304;PMS7003;65692;51.378;19.824;2023-03-23T02:36:02;61.25;48.50;34.25
55304;PMS7003;65692;51.378;19.824;2023-03-23T02:38:51;64.75;50.25;34.00
55304;PMS7003;65692;51.378;19.824;2023-03-23T02:41:21;68.25;52.75;37.75
55304;PMS7003;65692;51.378;19.824;2023-03-23T02:43:47;65.75;51.50;34.00
55304;PMS7003;65692;51.378;19.824;2023-03-23T02:46:14;64.75;50.25;34.75
55304;PMS7003;65692;51.378;19.824;2023-03-23T02:48:40;69.50;55.50;36.00
55304;PMS7003;65692;51.378;19.824;2023-03-23T02:51:07;71.00;54.50;35.00
55304;PMS7003;65692;51.378;19.824;2023-03-23T02:53:33;70.75;54.00;36.25
55304;PMS7003;65692;51.378;19.824;2023-03-23T02:55:59;72.75;53.75;36.00
55304;PMS7003;65692;51.378;19.824;2023-03-23T02:58:28;66.00;54.00;36.50
55304;PMS7003;65692;51.378;19.824;2023-03-23T03:00:54;72.25;55.00;35.00
55304;PMS7003;65692;51.378;19.824;2023-03-23T03:03:22;69.50;53.50;36.25
55304;PMS7003;65692;51.378;19.824;2023-03-23T03:05:54;79.75;60.75;40.25
55304;PMS7003;65692;51.378;19.824;2023-03-23T03:11:19;78.75;60.00;40.75
55304;PMS7003;65692;51.378;19.824;2023-03-23T03:14:01;80.25;60.75;39.50
55304;PMS7003;65692;51.378;19.824;2023-03-23T03:21:40;65.75;54.00;36.00
55304;PMS7003;65692;51.378;19.824;2023-03-23T03:24:06;74.75;57.75;39.25
55304;PMS7003;65692;51.378;19.824;2023-03-23T03:26:36;71.50;56.00;37.00
55304;PMS7003;65692;51.378;19.824;2023-03-23T03:29:03;69.75;54.50;37.00
55304;PMS7003;65692;51.378;19.824;2023-03-23T03:31:29;68.50;53.75;36.75
55304;PMS7003;65692;51.378;19.824;2023-03-23T03:33:56;68.50;52.25;36.00
55304;PMS7003;65692;51.378;19.824;2023-03-23T03:36:23;73.50;55.00;36.50
55304;PMS7003;65692;51.378;19.824;2023-03-23T03:38:50;67.75;54.25;36.00
55304;PMS7003;65692;51.378;19.824;2023-03-23T03:41:15;61.75;49.00;35.25
55304;PMS7003;65692;51.378;19.824;2023-03-23T03:43:41;66.25;53.75;37.25
55304;PMS7003;65692;51.378;19.824;2023-03-23T03:46:06;67.00;53.25;37.00
55304;PMS7003;65692;51.378;19.824;2023-03-23T03:48:32;65.50;51.25;35.25
55304;PMS7003;65692;51.378;19.824;2023-03-23T03:50:57;65.50;51.25;35.75
55304;PMS7003;65692;51.378;19.824;2023-03-23T03:53:25;71.25;53.50;35.75
55304;PMS7003;65692;51.378;19.824;2023-03-23T03:55:51;70.25;52.25;34.00
55304;PMS7003;65692;51.378;19.824;2023-03-23T03:58:20;62.25;46.75;31.75
55304;PMS7003;65692;51.378;19.824;2023-03-23T04:00:46;73.00;56.75;37.00
55304;PMS7003;65692;51.378;19.824;2023-03-23T04:03:13;67.25;54.25;37.50
55304;PMS7003;65692;51.378;19.824;2023-03-23T04:05:38;76.50;56.25;37.00
55304;PMS7003;65692;51.378;19.824;2023-03-23T04:08:03;68.00;52.25;36.00
55304;PMS7003;65692;51.378;19.824;2023-03-23T04:10:29;66.00;52.00;33.50
55304;PMS7003;65692;51.378;19.824;2023-03-23T04:12:55;68.00;52.00;35.25
55304;PMS7003;65692;51.378;19.824;2023-03-23T04:15:20;65.75;52.00;34.75
55304;PMS7003;65692;51.378;19.824;2023-03-23T04:17:46;66.25;51.25;34.00
55304;PMS7003;65692;51.378;19.824;2023-03-23T04:20:12;61.75;51.00;34.00
55304;PMS7003;65692;51.378;19.824;2023-03-23T04:22:43;59.00;47.25;33.75
55304;PMS7003;65692;51.378;19.824;2023-03-23T04:25:10;63.00;49.50;32.25
55304;PMS7003;65692;51.378;19.824;2023-03-23T04:27:37;96.50;76.00;48.25
55304;PMS7003;65692;51.378;19.824;2023-03-23T04:30:02;75.50;57.50;38.50
55304;PMS7003;65692;51.378;19.824;2023-03-23T04:32:28;56.50;48.25;34.25
55304;PMS7003;65692;51.378;19.824;2023-03-23T04:34:56;70.25;53.50;36.75
55304;PMS7003;65692;51.378;19.824;2023-03-23T04:37:23;47.75;43.25;30.50
55304;PMS7003;65692;51.378;19.824;2023-03-23T04:39:51;58.75;46.75;30.00
55304;PMS7003;65692;51.378;19.824;2023-03-23T04:42:28;61.00;45.50;30.75
55304;PMS7003;65692;51.378;19.824;2023-03-23T04:44:55;53.50;44.00;30.75
55304;PMS7003;65692;51.378;19.824;2023-03-23T04:47:20;56.25;45.50;28.75
55304;PMS7003;65692;51.378;19.824;2023-03-23T04:49:46;50.50;43.50;30.50
55304;PMS7003;65692;51.378;19.824;2023-03-23T04:52:11;55.50;44.00;31.25
55304;PMS7003;65692;51.378;19.824;2023-03-23T04:54:36;57.50;45.50;30.00
55304;PMS7003;65692;51.378;19.824;2023-03-23T04:57:02;56.50;43.00;30.50
55304;PMS7003;65692;51.378;19.824;2023-03-23T04:59:28;54.75;45.00;31.00
55304;PMS7003;65692;51.378;19.824;2023-03-23T05:01:55;57.50;46.50;31.50
55304;PMS7003;65692;51.378;19.824;2023-03-23T05:04:21;54.50;43.00;30.25
55304;PMS7003;65692;51.378;19.824;2023-03-23T05:06:47;61.75;44.25;32.75
55304;PMS7003;65692;51.378;19.824;2023-03-23T05:09:13;53.00;41.75;27.25
55304;PMS7003;65692;51.378;19.824;2023-03-23T05:11:38;52.75;42.00;28.00
55304;PMS7003;65692;51.378;19.824;2023-03-23T05:14:04;56.75;45.75;31.00
55304;PMS7003;65692;51.378;19.824;2023-03-23T05:16:29;62.00;45.50;30.75
55304;PMS7003;65692;51.378;19.824;2023-03-23T05:18:55;57.75;43.25;28.75
55304;PMS7003;65692;51.378;19.824;2023-03-23T05:21:22;55.00;42.25;28.50
55304;PMS7003;65692;51.378;19.824;2023-03-23T05:23:48;51.50;42.25;29.25
55304;PMS7003;65692;51.378;19.824;2023-03-23T05:26:19;30.50;22.50;10.00
55304;PMS7003;65692;51.378;19.824;2023-03-23T05:28:45;48.00;40.50;29.25
55304;PMS7003;65692;51.378;19.824;2023-03-23T05:31:10;50.50;41.50;28.75
55304;PMS7003;65692;51.378;19.824;2023-03-23T05:33:36;54.75;43.50;29.00
55304;PMS7003;65692;51.378;19.824;2023-03-23T05:36:01;40.75;38.00;25.00
55304;PMS7003;65692;51.378;19.824;2023-03-23T05:38:29;41.25;39.00;29.00
55304;PMS7003;65692;51.378;19.824;2023-03-23T05:40:57;44.00;36.75;25.25
55304;PMS7003;65692;51.378;19.824;2023-03-23T05:43:25;38.50;34.75;24.00
55304;PMS7003;65692;51.378;19.824;2023-03-23T05:45:50;41.75;35.50;26.75
55304;PMS7003;65692;51.378;19.824;2023-03-23T05:48:16;40.00;33.00;25.00
55304;PMS7003;65692;51.378;19.824;2023-03-23T05:50:41;41.25;37.50;27.00
55304;PMS7003;65692;51.378;19.824;2023-03-23T05:53:06;51.75;42.75;29.25
55304;PMS7003;65692;51.378;19.824;2023-03-23T05:55:32;43.75;39.75;28.00
55304;PMS7003;65692;51.378;19.824;2023-03-23T05:57:58;41.67;39.00;26.33
55304;PMS7003;65692;51.378;19.824;2023-03-23T06:00:24;43.67;34.33;24.33
55304;PMS7003;65692;51.378;19.824;2023-03-23T06:02:49;37.00;34.00;23.67
55304;PMS7003;65692;51.378;19.824;2023-03-23T06:05:16;46.33;34.00;24.00
55304;PMS7003;65692;51.378;19.824;2023-03-23T06:07:42;31.00;27.67;21.67
55304;PMS7003;65692;51.378;19.824;2023-03-23T06:10:08;34.67;26.00;20.00
55304;PMS7003;65692;51.378;19.824;2023-03-23T06:12:34;24.33;24.00;19.33
55304;PMS7003;65692;51.378;19.824;2023-03-23T06:14:59;31.00;28.33;21.33
55304;PMS7003;65692;51.378;19.824;2023-03-23T06:17:24;16.00;16.00;14.00
55304;PMS7003;65692;51.378;19.824;2023-03-23T06:19:50;29.33;24.67;19.33
55304;PMS7003;65692;51.378;19.824;2023-03-23T06:22:16;34.67;27.67;20.00
55304;PMS7003;65692;51.378;19.824;2023-03-23T06:24:41;26.33;26.00;19.00
55304;PMS7003;65692;51.378;19.824;2023-03-23T06:27:07;28.00;26.00;21.00
55304;PMS7003;65692;51.378;19.824;2023-03-23T06:29:34;27.50;24.25;19.75
55304;PMS7003;65692;51.378;19.824;2023-03-23T06:32:00;29.25;28.25;21.00
55304;PMS7003;65692;51.378;19.824;2023-03-23T06:34:27;24.00;23.25;18.25
55304;PMS7003;65692;51.378;19.824;2023-03-23T06:36:52;26.33;21.67;15.33
55304;PMS7003;65692;51.378;19.824;2023-03-23T06:39:18;28.33;23.33;18.00
55304;PMS7003;65692;51.378;19.824;2023-03-23T06:41:44;23.33;22.33;17.33
55304;PMS7003;65692;51.378;19.824;2023-03-23T06:44:09;25.00;21.33;14.33
55304;PMS7003;65692;51.378;19.824;2023-03-23T06:46:38;26.25;21.50;16.25
55304;PMS7003;65692;51.378;19.824;2023-03-23T06:49:04;24.67;23.67;19.00
55304;PMS7003;65692;51.378;19.824;2023-03-23T06:51:30;24.25;24.25;18.75
55304;PMS7003;65692;51.378;19.824;2023-03-23T06:53:55;25.00;22.67;18.67
55304;PMS7003;65692;51.378;19.824;2023-03-23T06:56:22;28.00;24.50;18.00
55304;PMS7003;65692;51.378;19.824;2023-03-23T06:58:47;29.00;22.67;17.00
55304;PMS7003;65692;51.378;19.824;2023-03-23T07:01:13;30.00;26.00;19.00
55304;PMS7003;65692;51.378;19.824;2023-03-23T07:03:40;26.25;24.75;18.00
55304;PMS7003;65692;51.378;19.824;2023-03-23T07:06:06;28.33;24.00;19.00
55304;PMS7003;65692;51.378;19.824;2023-03-23T07:08:32;25.25;21.50;17.50
55304;PMS7003;65692;51.378;19.824;2023-03-23T07:10:57;31.00;26.00;17.67
55304;PMS7003;65692;51.378;19.824;2023-03-23T07:13:23;30.00;23.33;18.00
55304;PMS7003;65692;51.378;19.824;2023-03-23T07:15:48;30.00;25.00;19.00
55304;PMS7003;65692;51.378;19.824;2023-03-23T07:18:15;28.00;24.75;19.00
55304;PMS7003;65692;51.378;19.824;2023-03-23T07:20:40;31.33;30.33;21.67
55304;PMS7003;65692;51.378;19.824;2023-03-23T07:23:06;30.33;26.33;20.00
55304;PMS7003;65692;51.378;19.824;2023-03-23T07:25:34;26.00;23.33;17.33
55304;PMS7003;65692;51.378;19.824;2023-03-23T07:28:01;24.75;22.25;17.00
55304;PMS7003;65692;51.378;19.824;2023-03-23T07:30:27;30.75;28.25;20.00
55304;PMS7003;65692;51.378;19.824;2023-03-23T07:32:54;26.25;23.50;17.00
55304;PMS7003;65692;51.378;19.824;2023-03-23T07:35:20;19.67;17.33;12.00
55304;PMS7003;65692;51.378;19.824;2023-03-23T07:37:45;27.33;24.33;17.00
55304;PMS7003;65692;51.378;19.824;2023-03-23T07:40:14;23.00;21.25;15.75
55304;PMS7003;65692;51.378;19.824;2023-03-23T07:42:43;30.00;24.33;17.67
55304;PMS7003;65692;51.378;19.824;2023-03-23T07:45:10;25.25;22.00;16.00
55304;PMS7003;65692;51.378;19.824;2023-03-23T07:47:36;26.75;21.50;15.75
55304;PMS7003;65692;51.378;19.824;2023-03-23T07:50:01;26.33;25.33;19.00
55304;PMS7003;65692;51.378;19.824;2023-03-23T07:52:27;26.00;23.00;17.33
55304;PMS7003;65692;51.378;19.824;2023-03-23T07:54:52;28.67;25.00;18.00
55304;PMS7003;65692;51.378;19.824;2023-03-23T07:57:18;23.33;21.67;16.33
55304;PMS7003;65692;51.378;19.824;2023-03-23T07:59:43;26.67;22.67;17.00
55304;PMS7003;65692;51.378;19.824;2023-03-23T08:02:08;24.00;22.00;17.33
55304;PMS7003;65692;51.378;19.824;2023-03-23T08:04:34;21.00;19.33;14.00
55304;PMS7003;65692;51.378;19.824;2023-03-23T08:07:02;26.00;23.75;17.75
55304;PMS7003;65692;51.378;19.824;2023-03-23T08:09:28;23.67;20.67;17.00
55304;PMS7003;65692;51.378;19.824;2023-03-23T08:11:53;23.00;20.67;15.00
55304;PMS7003;65692;51.378;19.824;2023-03-23T08:14:18;22.67;20.00;15.67
55304;PMS7003;65692;51.378;19.824;2023-03-23T08:16:44;22.33;20.33;15.33
55304;PMS7003;65692;51.378;19.824;2023-03-23T08:19:09;28.67;21.00;15.67
55304;PMS7003;65692;51.378;19.824;2023-03-23T08:21:34;22.67;20.67;16.67
55304;PMS7003;65692;51.378;19.824;2023-03-23T08:24:00;17.67;16.00;12.67
55304;PMS7003;65692;51.378;19.824;2023-03-23T08:26:26;21.33;19.00;14.00
55304;PMS7003;65692;51.378;19.824;2023-03-23T08:28:52;19.67;18.67;14.00
55304;PMS7003;65692;51.378;19.824;2023-03-23T08:31:18;18.75;16.50;12.75
55304;PMS7003;65692;51.378;19.824;2023-03-23T08:33:43;16.67;14.33;11.00
55304;PMS7003;65692;51.378;19.824;2023-03-23T08:36:09;16.67;13.00;11.00
55304;PMS7003;65692;51.378;19.824;2023-03-23T08:38:35;17.33;16.67;13.00
55304;PMS7003;65692;51.378;19.824;2023-03-23T08:41:01;18.50;15.25;12.75
55304;PMS7003;65692;51.378;19.824;2023-03-23T08:43:28;15.25;14.75;11.25
55304;PMS7003;65692;51.378;19.824;2023-03-23T08:45:53;16.33;15.67;13.33
55304;PMS7003;65692;51.378;19.824;2023-03-23T08:48:19;20.00;14.67;12.00
55304;PMS7003;65692;51.378;19.824;2023-03-23T08:50:44;18.33;15.67;11.67
55304;PMS7003;65692;51.378;19.824;2023-03-23T08:53:10;19.33;16.33;13.00
55304;PMS7003;65692;51.378;19.824;2023-03-23T08:55:36;18.50;16.50;13.50
55304;PMS7003;65692;51.378;19.824;2023-03-23T08:58:01;16.00;13.33;10.33
55304;PMS7003;65692;51.378;19.824;2023-03-23T09:00:28;13.50;13.25;10.25
55304;PMS7003;65692;51.378;19.824;2023-03-23T09:02:54;13.00;12.33;11.33
55304;PMS7003;65692;51.378;19.824;2023-03-23T09:05:21;13.25;13.00;10.50
55304;PMS7003;65692;51.378;19.824;2023-03-23T09:07:49;14.00;13.00;10.50
55304;PMS7003;65692;51.378;19.824;2023-03-23T09:10:15;13.75;13.00;9.00
55304;PMS7003;65692;51.378;19.824;2023-03-23T09:12:41;14.50;12.50;10.00
55304;PMS7003;65692;51.378;19.824;2023-03-23T09:15:07;12.00;11.33;9.33
55304;PMS7003;65692;51.378;19.824;2023-03-23T09:17:37;13.00;12.75;10.50
55304;PMS7003;65692;51.378;19.824;2023-03-23T09:20:03;13.25;11.25;9.25
55304;PMS7003;65692;51.378;19.824;2023-03-23T09:22:32;12.75;12.00;9.00
55304;PMS7003;65692;51.378;19.824;2023-03-23T09:24:58;11.67;11.33;9.33
55304;PMS7003;65692;51.378;19.824;2023-03-23T09:27:23;14.00;11.33;10.33
55304;PMS7003;65692;51.378;19.824;2023-03-23T09:29:48;20.00;15.00;12.00
55304;PMS7003;65692;51.378;19.824;2023-03-23T09:32:14;10.67;10.00;8.00
55304;PMS7003;65692;51.378;19.824;2023-03-23T09:34:40;12.50;10.75;9.75
55304;PMS7003;65692;51.378;19.824;2023-03-23T09:37:06;14.75;9.50;7.00
55304;PMS7003;65692;51.378;19.824;2023-03-23T09:39:31;11.00;11.00;10.33
55304;PMS7003;65692;51.378;19.824;2023-03-23T09:42:07;10.33;8.67;6.67
55304;PMS7003;65692;51.378;19.824;2023-03-23T09:49:55;16.50;16.00;12.00
55304;PMS7003;65692;51.378;19.824;2023-03-23T09:52:22;9.00;9.00;8.00
55304;PMS7003;65692;51.378;19.824;2023-03-23T09:54:54;9.75;8.25;6.75
55304;PMS7003;65692;51.378;19.824;2023-03-23T09:57:26;10.50;10.50;8.75
55304;PMS7003;65692;51.378;19.824;2023-03-23T09:59:59;10.25;9.75;8.00
55304;PMS7003;65692;51.378;19.824;2023-03-23T10:04:55;11.33;8.67;7.00
55304;PMS7003;65692;51.378;19.824;2023-03-23T10:07:23;10.75;10.50;8.50
55304;PMS7003;65692;51.378;19.824;2023-03-23T10:09:57;11.00;9.50;7.75
55304;PMS7003;65692;51.378;19.824;2023-03-23T10:14:58;11.50;10.75;8.00
55304;PMS7003;65692;51.378;19.824;2023-03-23T10:17:37;11.75;10.75;7.75
55304;PMS7003;65692;51.378;19.824;2023-03-23T10:25:25;14.25;11.00;9.50
55304;PMS7003;65692;51.378;19.824;2023-03-23T10:35:37;12.00;11.00;9.00
55304;PMS7003;65692;51.378;19.824;2023-03-23T10:38:09;13.25;13.25;8.50
55304;PMS7003;65692;51.378;19.824;2023-03-23T10:40:44;14.00;11.75;8.75
55304;PMS7003;65692;51.378;19.824;2023-03-23T10:43:12;14.75;13.25;9.75
55304;PMS7003;65692;51.378;19.824;2023-03-23T10:45:38;12.33;11.00;8.67
55304;PMS7003;65692;51.378;19.824;2023-03-23T10:50:31;10.33;9.67;7.33
55304;PMS7003;65692;51.378;19.824;2023-03-23T10:52:58;16.00;15.50;12.75
55304;PMS7003;65692;51.378;19.824;2023-03-23T10:55:34;11.50;10.00;7.25
55304;PMS7003;65692;51.378;19.824;2023-03-23T11:00:26;10.33;9.33;7.33
55304;PMS7003;65692;51.378;19.824;2023-03-23T11:05:25;9.25;8.00;6.75
55304;PMS7003;65692;51.378;19.824;2023-03-23T11:07:55;12.25;8.50;7.00
55304;PMS7003;65692;51.378;19.824;2023-03-23T11:12:46;6.00;6.00;4.67
55304;PMS7003;65692;51.378;19.824;2023-03-23T11:15:16;9.33;7.00;5.67
55304;PMS7003;65692;51.378;19.824;2023-03-23T11:17:54;6.50;6.50;6.00
55304;PMS7003;65692;51.378;19.824;2023-03-23T11:20:20;10.00;6.50;5.75
55304;PMS7003;65692;51.378;19.824;2023-03-23T11:22:46;7.00;6.33;4.67
55304;PMS7003;65692;51.378;19.824;2023-03-23T11:25:12;7.00;7.00;6.00
55304;PMS7003;65692;51.378;19.824;2023-03-23T11:27:39;6.25;5.50;5.00
55304;PMS7003;65692;51.378;19.824;2023-03-23T11:30:25;10.33;7.33;6.00
55304;PMS7003;65692;51.378;19.824;2023-03-23T11:32:52;9.25;8.00;7.00
55304;PMS7003;65692;51.378;19.824;2023-03-23T11:35:21;6.33;6.33;5.00
55304;PMS7003;65692;51.378;19.824;2023-03-23T11:37:51;5.50;5.50;5.00
55304;PMS7003;65692;51.378;19.824;2023-03-23T11:40:21;8.00;5.25;4.75
55304;PMS7003;65692;51.378;19.824;2023-03-23T11:42:48;8.25;7.50;6.50
55304;PMS7003;65692;51.378;19.824;2023-03-23T11:45:24;5.25;4.75;4.00
55304;PMS7003;65692;51.378;19.824;2023-03-23T11:47:54;8.25;8.00;6.00
55304;PMS7003;65692;51.378;19.824;2023-03-23T11:50:25;6.75;6.75;6.25
55304;PMS7003;65692;51.378;19.824;2023-03-23T11:58:17;6.00;6.00;5.00
55304;PMS7003;65692;51.378;19.824;2023-03-23T12:00:48;4.50;4.50;3.50
55304;PMS7003;65692;51.378;19.824;2023-03-23T12:06:18;7.50;7.50;6.50
55304;PMS7003;65692;51.378;19.824;2023-03-23T12:19:02;11.67;9.67;8.00
55304;PMS7003;65692;51.378;19.824;2023-03-23T12:21:47;7.75;6.75;6.00
55304;PMS7003;65692;51.378;19.824;2023-03-23T12:29:39;7.25;7.25;6.00
55304;PMS7003;65692;51.378;19.824;2023-03-23T12:48:00;9.50;9.00;7.00
55304;PMS7003;65692;51.378;19.824;2023-03-23T12:50:42;8.50;7.00;6.00
55304;PMS7003;65692;51.378;19.824;2023-03-23T12:55:42;7.00;6.00;4.75
55304;PMS7003;65692;51.378;19.824;2023-03-23T12:58:12;5.00;5.00;3.25
55304;PMS7003;65692;51.378;19.824;2023-03-23T13:03:24;6.00;6.00;5.00
55304;PMS7003;65692;51.378;19.824;2023-03-23T13:05:55;7.25;7.25;6.00
55304;PMS7003;65692;51.378;19.824;2023-03-23T13:08:26;11.75;9.75;8.00
55304;PMS7003;65692;51.378;19.824;2023-03-23T13:10:55;12.00;8.00;6.00
55304;PMS7003;65692;51.378;19.824;2023-03-23T13:13:24;9.75;8.00;8.00
55304;PMS7003;65692;51.378;19.824;2023-03-23T13:18:47;9.25;8.25;6.00
55304;PMS7003;65692;51.378;19.824;2023-03-23T13:24:08;6.00;4.25;3.50
55304;PMS7003;65692;51.378;19.824;2023-03-23T13:26:32;8.25;6.50;6.00
55304;PMS7003;65692;51.378;19.824;2023-03-23T13:29:06;7.50;5.75;5.00
55304;PMS7003;65692;51.378;19.824;2023-03-23T13:31:38;6.25;6.25;4.25
55304;PMS7003;65692;51.378;19.824;2023-03-23T13:37:04;4.50;4.50;3.50
55304;PMS7003;65692;51.378;19.824;2023-03-23T13:39:32;6.00;5.00;4.25
55304;PMS7003;65692;51.378;19.824;2023-03-23T13:44:41;6.75;4.75;3.00
55304;PMS7003;65692;51.378;19.824;2023-03-23T13:49:45;4.75;3.25;2.50
55304;PMS7003;65692;51.378;19.824;2023-03-23T13:52:17;7.00;6.00;5.00
55304;PMS7003;65692;51.378;19.824;2023-03-23T13:54:46;4.75;4.00;3.00
55304;PMS7003;65692;51.378;19.824;2023-03-23T13:59:55;6.25;5.00;3.75
55304;PMS7003;65692;51.378;19.824;2023-03-23T14:04:56;2.50;2.00;2.00
55304;PMS7003;65692;51.378;19.824;2023-03-23T14:07:21;4.00;4.00;3.00
55304;PMS7003;65692;51.378;19.824;2023-03-23T14:09:49;5.25;5.25;3.75
55304;PMS7003;65692;51.378;19.824;2023-03-23T14:12:19;1.50;1.50;1.00
55304;PMS7003;65692;51.378;19.824;2023-03-23T14:14:47;5.25;4.00;3.00
55304;PMS7003;65692;51.378;19.824;2023-03-23T14:17:18;10.00;4.00;3.00
55304;PMS7003;65692;51.378;19.824;2023-03-23T14:19:48;2.75;2.00;2.00
55304;PMS7003;65692;51.378;19.824;2023-03-23T14:22:25;5.75;5.00;4.00
55304;PMS7003;65692;51.378;19.824;2023-03-23T14:24:51;5.00;5.00;4.75
55304;PMS7003;65692;51.378;19.824;2023-03-23T14:27:19;6.00;4.67;4.00
55304;PMS7003;65692;51.378;19.824;2023-03-23T14:29:44;4.75;3.50;3.00
55304;PMS7003;65692;51.378;19.824;2023-03-23T14:32:12;6.33;5.67;4.67
55304;PMS7003;65692;51.378;19.824;2023-03-23T14:34:38;5.00;5.00;4.00
55304;PMS7003;65692;51.378;19.824;2023-03-23T14:37:04;6.00;6.00;5.33
55304;PMS7003;65692;51.378;19.824;2023-03-23T14:39:30;7.00;5.00;4.00
55304;PMS7003;65692;51.378;19.824;2023-03-23T14:42:10;6.50;5.50;4.75
55304;PMS7003;65692;51.378;19.824;2023-03-23T14:44:47;9.25;5.25;5.00
55304;PMS7003;65692;51.378;19.824;2023-03-23T14:47:18;5.00;3.75;3.00
55304;PMS7003;65692;51.378;19.824;2023-03-23T14:49:45;7.00;4.75;4.50
55304;PMS7003;65692;51.378;19.824;2023-03-23T14:52:12;4.00;4.00;3.67
55304;PMS7003;65692;51.378;19.824;2023-03-23T14:54:38;4.75;4.75;4.25
55304;PMS7003;65692;51.378;19.824;2023-03-23T14:57:17;5.25;5.25;4.00
55304;PMS7003;65692;51.378;19.824;2023-03-23T14:59:44;5.75;5.75;5.25
55304;PMS7003;65692;51.378;19.824;2023-03-23T15:02:17;6.00;4.00;4.00
55304;PMS7003;65692;51.378;19.824;2023-03-23T15:04:47;7.00;5.00;3.75
55304;PMS7003;65692;51.378;19.824;2023-03-23T15:07:13;5.00;5.00;4.25
55304;PMS7003;65692;51.378;19.824;2023-03-23T15:09:42;8.25;7.00;5.50
55304;PMS7003;65692;51.378;19.824;2023-03-23T15:12:09;4.50;4.25;3.50
55304;PMS7003;65692;51.378;19.824;2023-03-23T15:14:44;6.75;4.75;4.00
55304;PMS7003;65692;51.378;19.824;2023-03-23T15:17:11;6.75;4.00;3.50
55304;PMS7003;65692;51.378;19.824;2023-03-23T15:19:43;6.25;5.75;4.75
55304;PMS7003;65692;51.378;19.824;2023-03-23T15:24:37;5.00;5.00;4.00
55304;PMS7003;65692;51.378;19.824;2023-03-23T15:29:45;6.25;5.50;4.50
55304;PMS7003;65692;51.378;19.824;2023-03-23T15:32:10;5.00;4.75;4.00
55304;PMS7003;65692;51.378;19.824;2023-03-23T15:34:36;3.00;3.00;2.67
55304;PMS7003;65692;51.378;19.824;2023-03-23T15:37:05;6.25;4.75;3.75
55304;PMS7003;65692;51.378;19.824;2023-03-23T15:39:31;7.00;7.00;6.00
55304;PMS7003;65692;51.378;19.824;2023-03-23T15:41:57;8.00;6.00;5.00
55304;PMS7003;65692;51.378;19.824;2023-03-23T15:44:30;8.50;8.25;7.00
55304;PMS7003;65692;51.378;19.824;2023-03-23T15:47:04;7.25;7.25;6.00
55304;PMS7003;65692;51.378;19.824;2023-03-23T15:49:29;9.00;7.75;7.00
55304;PMS7003;65692;51.378;19.824;2023-03-23T15:51:55;10.00;10.00;9.00